Time;durP1;ratioP1;P1;durP2;ratioP2;P2;SDS_P1;SDS_P2;PMS_P1;PMS_P2;Temp;Humidity;BMP_temperature;BMP_pressure;BME280_temperature;BME280_humidity;BME280_pressure;Samples;Min_cycle;Max_cycle;Signal;HPM_P1;HPM_P2
2023/10/29 00:09:12;;;;;;;5.10;3.00;;;;;;;5.79;100.00;94667.06;7398406;19;20414;-91
2023/10/29 00:11:50;;;;;;;;;;;;;;;;;;;;;
2023/10/29 00:25:17;;;;;;;5.57;3.00;;;;;;;5.34;100.00;94637.44;7393331;19;20350;-91
2023/10/29 00:27:44;;;;;;;6.47;3.17;;;;;;;5.79;100.00;94706.38;7393656;19;20363;-90
2023/10/29 00:30:12;;;;;;;3.57;3.27;;;;;;;5.28;100.00;94646.63;7392736;19;20491;-89
2023/10/29 00:33:00;;;;;;;5.00;3.30;;;;;;;6.29;100.00;94795.03;7395238;19;20377;-89
2023/10/29 00:39:12;;;;;;;3.43;3.10;;;;;;;4.54;100.00;94558.16;7393126;19;20405;-89
2023/10/29 00:41:43;;;;;;;4.90;2.93;;;;;;;4.89;100.00;94606.28;7395194;19;20818;-90
2023/10/29 00:44:10;;;;;;;3.83;2.93;;;;;;;5.20;100.00;94660.63;7392791;19;20453;-90
2023/10/29 00:46:40;;;;;;;3.87;2.93;;;;;;;5.63;100.00;94709.72;7393177;19;20372;-90
2023/10/29 00:49:08;;;;;;;5.70;3.50;;;;;;;5.25;100.00;94657.03;7390315;19;20408;-91
2023/10/29 00:51:35;;;;;;;8.10;3.23;;;;;;;5.78;100.00;94738.94;7392748;19;20394;-91
2023/10/29 00:54:03;;;;;;;5.73;4.10;;;;;;;5.77;100.00;94730.31;7394139;19;20367;-90
2023/10/29 00:56:30;;;;;;;5.37;4.50;;;;;;;5.50;100.00;94678.66;7394585;19;20353;-90
2023/10/29 00:58:58;;;;;;;5.47;3.30;;;;;;;4.88;100.00;94590.91;7395458;19;20416;-91
2023/10/29 01:01:25;;;;;;;4.13;3.13;;;;;;;6.12;100.00;94769.06;7395616;19;20365;-91
2023/10/29 01:03:52;;;;;;;6.13;3.60;;;;;;;5.65;100.00;94704.16;7396801;19;20416;-91
2023/10/29 01:06:20;;;;;;;3.97;3.40;;;;;;;5.04;100.00;94607.41;7398707;19;20368;-91
2023/10/29 01:08:47;;;;;;;3.17;2.87;;;;;;;5.30;100.00;94633.94;7401393;19;20408;-90
2023/10/29 01:11:15;;;;;;;7.33;3.40;;;;;;;4.55;100.00;94515.22;7398404;19;20400;-91
2023/10/29 01:13:42;;;;;;;6.03;2.80;;;;;;;5.37;100.00;94645.75;7395572;19;20397;-90
2023/10/29 01:16:09;;;;;;;6.23;3.30;;;;;;;4.77;100.00;94555.81;7393859;19;20380;-91
2023/10/29 01:18:44;;;;;;;3.00;2.70;;;;;;;4.19;100.00;94453.28;7396368;19;20385;-90
2023/10/29 01:21:12;;;;;;;6.30;3.13;;;;;;;4.02;100.00;94447.25;7397610;19;20401;-90
2023/10/29 01:23:39;;;;;;;4.77;3.30;;;;;;;5.00;100.00;94581.16;7395469;19;20375;-90
2023/10/29 01:26:06;;;;;;;4.13;3.47;;;;;;;5.33;100.00;94635.13;7397493;19;20393;-90
2023/10/29 01:28:39;;;;;;;4.27;2.30;;;;;;;4.99;100.00;94571.78;7393451;19;20842;-90
2023/10/29 01:31:06;;;;;;;4.00;3.50;;;;;;;4.00;100.00;94435.56;7393729;19;20380;-91
2023/10/29 01:33:33;;;;;;;4.80;2.70;;;;;;;5.60;100.00;94681.53;7393675;19;20380;-90
2023/10/29 01:36:01;;;;;;;3.53;2.43;;;;;;;5.53;100.00;94663.03;7392349;19;20431;-91
2023/10/29 01:41:16;;;;;;;3.50;2.87;;;;;;;5.04;100.00;94576.75;7388048;19;20520;-90
2023/10/29 01:43:43;;;;;;;3.57;2.40;;;;;;;5.68;100.00;94702.72;7394106;19;20376;-91
2023/10/29 01:46:11;;;;;;;6.50;3.27;;;;;;;4.94;100.00;94586.94;7394201;19;20390;-91
2023/10/29 01:48:38;;;;;;;6.17;3.37;;;;;;;5.36;100.00;94655.47;7393116;19;20373;-90
2023/10/29 01:51:06;;;;;;;4.50;3.03;;;;;;;4.89;100.00;94582.72;7395063;19;20372;-90
2023/10/29 01:53:33;;;;;;;6.13;4.17;;;;;;;5.54;100.00;94679.50;7394788;19;20386;-91
2023/10/29 01:56:00;;;;;;;3.97;2.93;;;;;;;6.25;100.00;94785.53;7396130;19;20383;-90
2023/10/29 01:58:27;;;;;;;4.70;3.10;;;;;;;5.18;100.00;94638.47;7395159;19;20371;-90
2023/10/29 02:00:55;;;;;;;4.83;2.90;;;;;;;4.67;100.00;94568.28;7393909;19;20379;-91
2023/10/29 02:03:22;;;;;;;3.93;2.97;;;;;;;5.47;100.00;94687.16;7401752;19;20378;-91
2023/10/29 02:05:49;;;;;;;3.27;3.07;;;;;;;5.78;100.00;94752.06;7422060;19;20389;-91
2023/10/29 02:08:18;;;;;;;4.80;2.13;;;;;;;5.38;100.00;94695.19;7426880;19;20379;-92
2023/10/29 02:10:45;;;;;;;4.80;2.50;;;;;;;3.93;100.00;94483.19;7422537;19;20410;-92
2023/10/29 02:13:14;;;;;;;2.93;2.63;;;;;;;4.43;100.00;94550.03;7422991;19;20377;-92
2023/10/29 02:15:44;;;;;;;8.53;3.20;;;;;;;4.58;100.00;94562.41;7407179;19;20902;-93
2023/10/29 02:18:12;;;;;;;4.10;3.30;;;;;;;5.21;100.00;94656.16;7404017;19;20796;-92
2023/10/29 02:20:39;;;;;;;3.23;2.90;;;;;;;4.86;100.00;94606.19;7401287;19;20396;-93
2023/10/29 02:23:12;;;;;;;2.40;2.20;;;;;;;4.02;100.00;94489.06;7402944;19;20380;-92
2023/10/29 02:25:45;;;;;;;2.90;2.57;;;;;;;5.13;100.00;94652.56;7407910;19;20372;-92
2023/10/29 02:28:15;;;;;;;3.30;3.00;;;;;;;4.57;100.00;94579.19;7403325;19;20387;-91
2023/10/29 02:30:43;;;;;;;9.77;3.10;;;;;;;5.03;100.00;94660.91;7400548;19;20385;-92
2023/10/29 02:33:10;;;;;;;4.63;2.70;;;;;;;4.40;100.00;94577.56;7399928;19;20902;-92
2023/10/29 02:35:37;;;;;;;3.57;2.53;;;;;;;4.56;100.00;94584.78;7399156;19;20404;-91
2023/10/29 02:38:16;;;;;;;2.43;2.23;;;;;;;4.34;100.00;94552.75;7400432;19;20390;-92
2023/10/29 02:40:44;;;;;;;4.00;2.80;;;;;;;4.61;100.00;94593.16;7399582;19;20419;-92
2023/10/29 02:43:13;;;;;;;5.10;2.47;;;;;;;4.76;100.00;94620.47;7399675;19;20409;-92
2023/10/29 02:45:41;;;;;;;2.83;2.00;;;;;;;5.12;100.00;94674.63;7400467;19;20397;-92
2023/10/29 02:48:20;;;;;;;4.23;2.50;;;;;;;4.71;100.00;94608.41;7401840;19;20409;-92
2023/10/29 02:51:02;;;;;;;4.67;2.93;;;;;;;3.60;100.00;94430.28;7400646;19;20367;-92
2023/10/29 03:00:00;;;;;;;6.87;2.93;;;;;;;3.47;100.00;94400.81;7399638;19;20409;-92
2023/10/29 03:02:32;;;;;;;4.33;3.93;;;;;;;4.87;100.00;94605.09;7399073;19;20370;-92
2023/10/29 03:04:59;;;;;;;2.67;2.47;;;;;;;4.73;100.00;94587.88;7398418;19;20439;-91
2023/10/29 03:07:26;;;;;;;5.87;3.10;;;;;;;4.55;100.00;94547.38;7397955;19;21004;-92
2023/10/29 03:09:53;;;;;;;4.23;2.70;;;;;;;5.60;100.00;94704.38;7395833;19;20422;-92
2023/10/29 03:12:20;;;;;;;6.97;2.90;;;;;;;5.09;100.00;94635.25;7409384;19;20444;-92
2023/10/29 03:14:47;;;;;;;4.40;2.77;;;;;;;4.69;100.00;94570.56;7431784;19;20389;-91
2023/10/29 03:17:15;;;;;;;4.40;3.80;;;;;;;5.04;100.00;94618.66;7429345;19;20399;-92
2023/10/29 03:19:42;;;;;;;7.80;3.07;;;;;;;4.78;100.00;94573.03;7429901;19;20433;-92
2023/10/29 03:22:20;;;;;;;6.87;2.77;;;;;;;3.79;100.00;94428.66;7430979;19;20383;-92
2023/10/29 03:25:02;;;;;;;4.40;2.70;;;;;;;4.53;100.00;94518.13;7430782;19;20374;-93
2023/10/29 03:27:30;;;;;;;2.70;2.40;;;;;;;5.19;100.00;94611.19;7429869;19;20385;-91
2023/10/29 03:30:20;;;;;;;3.87;3.07;;;;;;;6.20;100.00;94763.69;7395189;19;20404;-91
2023/10/29 03:32:48;;;;;;;5.77;2.70;;;;;;;4.91;100.00;94570.03;7396441;19;20909;-91
2023/10/29 03:35:20;;;;;;;3.13;2.80;;;;;;;4.53;100.00;94514.75;7396544;19;20454;-91
2023/10/29 03:37:48;;;;;;;2.97;2.37;;;;;;;4.00;100.00;94446.78;7394523;19;20998;-91
2023/10/29 03:40:15;;;;;;;3.77;2.20;;;;;;;5.29;100.00;94629.81;7395304;19;20421;-90
2023/10/29 03:42:42;;;;;;;5.43;2.37;;;;;;;5.62;100.00;94679.38;7396748;19;20455;-91
2023/10/29 03:45:12;;;;;;;3.03;2.50;;;;;;;3.98;100.00;94446.34;7395668;19;20377;-91
2023/10/29 03:47:44;;;;;;;7.90;2.80;;;;;;;5.06;100.00;94607.84;7396064;19;20386;-91
2023/10/29 03:50:12;;;;;;;2.40;2.20;;;;;;;4.82;100.00;94569.44;7394485;19;20404;-91
2023/10/29 03:52:39;;;;;;;4.13;2.47;;;;;;;5.46;100.00;94678.53;7396577;19;20608;-91
2023/10/29 03:55:09;;;;;;;4.43;2.10;;;;;;;3.85;100.00;94426.56;7396333;19;20407;-91
2023/10/29 03:57:36;;;;;;;3.17;2.70;;;;;;;5.20;100.00;94644.13;7394198;19;20399;-91
2023/10/29 04:00:03;;;;;;;4.43;2.50;;;;;;;5.65;100.00;94696.28;7394295;19;20483;-91
2023/10/29 04:02:37;;;;;;;3.67;2.10;;;;;;;5.62;100.00;94681.22;7396163;19;20430;-91
2023/10/29 04:05:06;;;;;;;3.47;2.30;;;;;;;4.78;100.00;94554.72;7395871;19;20470;-91
2023/10/29 04:07:37;;;;;;;3.63;2.03;;;;;;;4.93;100.00;94574.94;7395257;19;20398;-91
2023/10/29 04:10:04;;;;;;;3.30;2.60;;;;;;;5.42;100.00;94653.34;7394354;19;20408;-92
2023/10/29 04:12:32;;;;;;;4.13;2.47;;;;;;;5.57;100.00;94666.50;7395807;19;20952;-92
2023/10/29 04:15:00;;;;;;;4.77;3.30;;;;;;;5.16;100.00;94612.63;7396608;19;20930;-91
2023/10/29 04:17:27;;;;;;;3.90;2.60;;;;;;;5.00;100.00;94583.00;7394059;19;20373;-92
2023/10/29 04:19:55;;;;;;;2.70;2.03;;;;;;;4.87;100.00;94582.28;7394037;19;20760;-91
2023/10/29 04:22:22;;;;;;;5.50;2.93;;;;;;;5.68;100.00;94705.34;7395858;19;20400;-91
2023/10/29 04:24:50;;;;;;;3.27;2.70;;;;;;;5.90;100.00;94752.81;7393799;19;20408;-91
2023/10/29 04:27:17;;;;;;;3.77;2.67;;;;;;;5.38;100.00;94663.75;7395211;19;20373;-91
2023/10/29 04:29:44;;;;;;;2.13;1.97;;;;;;;5.45;100.00;94673.63;7393311;19;20420;-91
2023/10/29 04:32:12;;;;;;;3.00;2.63;;;;;;;5.82;100.00;94724.81;7394791;19;21004;-91
2023/10/29 04:34:39;;;;;;;5.30;2.47;;;;;;;5.68;100.00;94695.59;7394711;19;20401;-91
2023/10/29 04:37:06;;;;;;;2.63;2.40;;;;;;;5.71;100.00;94709.91;7393868;19;20393;-91
2023/10/29 04:39:33;;;;;;;5.10;2.90;;;;;;;5.37;100.00;94680.56;7393258;19;20782;-92
2023/10/29 04:42:01;;;;;;;2.87;2.40;;;;;;;5.27;100.00;94663.44;7394374;19;20368;-92
2023/10/29 04:44:28;;;;;;;6.60;3.13;;;;;;;5.14;100.00;94667.19;7394232;19;20459;-92
2023/10/29 04:46:55;;;;;;;6.70;4.93;;;;;;;5.42;100.00;94695.28;7395334;19;20378;-91
2023/10/29 04:49:22;;;;;;;7.80;4.47;;;;;;;5.27;100.00;94686.25;7393326;19;20411;-91
2023/10/29 04:51:49;;;;;;;7.10;5.50;;;;;;;4.85;100.00;94649.16;7393573;19;20384;-91
2023/10/29 04:54:16;;;;;;;11.57;6.13;;;;;;;5.08;100.00;94678.25;7394306;19;20392;-92
2023/10/29 04:56:43;;;;;;;6.27;4.10;;;;;;;5.08;100.00;94662.53;7393729;19;20385;-91
2023/10/29 04:59:10;;;;;;;3.70;2.90;;;;;;;4.95;100.00;94640.84;7393001;19;20410;-91
2023/10/29 05:01:37;;;;;;;4.80;3.50;;;;;;;5.27;100.00;94694.13;7394010;19;20366;-91
2023/10/29 05:04:04;;;;;;;2.90;2.70;;;;;;;4.87;100.00;94636.50;7393802;19;20366;-91
2023/10/29 05:06:31;;;;;;;4.13;2.83;;;;;;;4.77;100.00;94629.84;7393144;19;20408;-91
2023/10/29 05:08:58;;;;;;;7.93;3.40;;;;;;;4.79;100.00;94626.91;7392883;19;20396;-91
2023/10/29 05:11:25;;;;;;;3.20;2.30;;;;;;;4.57;100.00;94600.13;7393837;19;20394;-91
2023/10/29 05:13:52;;;;;;;2.67;2.43;;;;;;;4.82;100.00;94636.75;7393050;19;20464;-91
2023/10/29 05:16:20;;;;;;;4.40;2.17;;;;;;;3.59;100.00;94444.44;7392537;19;20337;-92
2023/10/29 05:18:47;;;;;;;2.10;2.00;;;;;;;4.89;100.00;94634.31;7392656;19;20407;-91
2023/10/29 05:21:14;;;;;;;2.00;1.83;;;;;;;3.72;100.00;94466.88;7392602;19;20713;-91
2023/10/29 05:23:42;;;;;;;2.00;1.90;;;;;;;3.84;100.00;94456.41;7392887;19;20394;-91
2023/10/29 05:26:09;;;;;;;3.10;2.30;;;;;;;3.96;100.00;94506.06;7396042;19;20355;-91
2023/10/29 05:28:36;;;;;;;2.70;2.23;;;;;;;4.04;100.00;94497.34;7394987;19;20392;-91
2023/10/29 05:31:03;;;;;;;6.47;4.20;;;;;;;3.35;100.00;94417.28;7394981;19;20370;-92
2023/10/29 05:33:30;;;;;;;9.57;4.00;;;;;;;3.75;100.00;94469.59;7396196;19;20719;-92
2023/10/29 05:35:57;;;;;;;7.93;6.00;;;;;;;4.60;100.00;94602.09;7392740;19;20456;-91
2023/10/29 05:38:24;;;;;;;11.20;6.33;;;;;;;4.57;100.00;94594.16;7397085;19;20359;-92
2023/10/29 05:40:51;;;;;;;7.90;6.20;;;;;;;4.73;100.00;94615.91;7400180;19;20383;-92
2023/10/29 05:43:18;;;;;;;9.87;5.77;;;;;;;4.33;100.00;94587.84;7400649;19;20384;-92
2023/10/29 05:45:45;;;;;;;6.40;4.77;;;;;;;3.42;100.00;94479.38;7400771;19;20384;-92
2023/10/29 05:48:12;;;;;;;5.27;4.77;;;;;;;3.44;100.00;94491.03;7399419;19;20383;-92
2023/10/29 05:50:40;;;;;;;6.20;4.63;;;;;;;4.33;100.00;94627.09;7397208;19;20400;-91
2023/10/29 05:53:07;;;;;;;6.33;3.57;;;;;;;3.55;100.00;94526.09;7400887;19;20361;-92
2023/10/29 05:55:35;;;;;;;4.50;4.10;;;;;;;4.08;100.00;94587.09;7400113;19;21282;-91
2023/10/29 05:58:02;;;;;;;6.27;3.00;;;;;;;3.38;100.00;94502.03;7397274;19;20463;-92
2023/10/29 06:00:29;;;;;;;3.17;2.90;;;;;;;4.40;100.00;94639.59;7397428;19;20508;-91
2023/10/29 06:02:56;;;;;;;5.57;3.23;;;;;;;3.82;100.00;94560.50;7398885;19;20780;-91
2023/10/29 06:05:24;;;;;;;4.63;3.57;;;;;;;3.54;100.00;94511.50;7398951;19;20384;-91
2023/10/29 06:07:51;;;;;;;5.20;4.67;;;;;;;3.20;100.00;94468.25;7398916;19;20371;-91
2023/10/29 06:10:18;;;;;;;4.53;4.10;;;;;;;3.17;100.00;94463.69;7396762;19;20417;-91
2023/10/29 06:12:45;;;;;;;5.37;4.60;;;;;;;4.30;100.00;94650.53;7399296;19;20451;-91
2023/10/29 06:15:12;;;;;;;5.67;4.83;;;;;;;4.59;100.00;94692.16;7398407;19;20372;-91
2023/10/29 06:17:39;;;;;;;4.10;3.70;;;;;;;3.89;100.00;94605.19;7397858;19;20394;-92
2023/10/29 06:20:08;;;;;;;7.60;4.03;;;;;;;4.40;100.00;94677.00;7396617;19;20407;-92
2023/10/29 06:22:35;;;;;;;3.90;3.60;;;;;;;4.26;100.00;94663.47;7398570;19;20377;-91
2023/10/29 06:25:02;;;;;;;6.83;5.03;;;;;;;4.03;100.00;94610.84;7399349;19;20369;-89
2023/10/29 06:27:29;;;;;;;7.13;5.63;;;;;;;4.55;100.00;94706.25;7398908;19;20388;-90
2023/10/29 06:29:56;;;;;;;13.03;9.97;;;;;;;4.09;100.00;94646.16;7396450;19;20985;-90
2023/10/29 06:32:23;;;;;;;8.73;7.77;;;;;;;4.10;100.00;94639.81;7398187;19;20351;-90
2023/10/29 06:34:51;;;;;;;8.60;7.80;;;;;;;4.25;100.00;94672.41;7397949;19;20406;-90
2023/10/29 06:37:18;;;;;;;5.87;5.30;;;;;;;4.30;100.00;94705.44;7397015;19;20395;-90
2023/10/29 06:39:45;;;;;;;30.20;27.90;;;;;;;3.16;100.00;94535.28;7396087;19;20492;-91
2023/10/29 06:42:12;;;;;;;39.00;35.57;;;;;;;2.93;100.00;94493.13;7398737;19;20464;-91
2023/10/29 06:44:39;;;;;;;17.80;16.10;;;;;;;2.75;100.00;94423.94;7398619;19;20392;-91
2023/10/29 06:47:06;;;;;;;12.13;10.80;;;;;;;4.23;100.00;94650.28;7397285;19;20340;-91
2023/10/29 06:49:33;;;;;;;13.33;11.83;;;;;;;4.30;100.00;94658.38;7397196;19;20416;-91
2023/10/29 06:52:00;;;;;;;10.17;9.20;;;;;;;4.34;100.00;94622.63;7398696;19;20381;-90
2023/10/29 06:54:27;;;;;;;11.87;10.60;;;;;;;4.74;100.00;94701.19;7398304;19;20355;-91
2023/10/29 06:56:54;;;;;;;12.70;10.40;;;;;;;3.15;100.00;94457.28;7397447;19;20387;-91
2023/10/29 06:59:21;;;;;;;11.30;10.40;;;;;;;3.13;100.00;94446.41;7396762;19;20499;-91
2023/10/29 07:01:49;;;;;;;11.07;10.13;;;;;;;4.08;100.00;94597.56;7397951;19;20381;-91
2023/10/29 07:04:16;;;;;;;13.80;9.90;;;;;;;4.74;100.00;94667.94;7397556;19;20354;-91
2023/10/29 07:06:46;;;;;;;11.57;10.47;;;;;;;3.60;100.00;94493.00;7397617;19;20794;-91
2023/10/29 07:09:15;;;;;;;13.57;10.30;;;;;;;4.73;100.00;94626.38;7398245;19;20733;-92
2023/10/29 07:11:43;;;;;;;13.57;10.33;;;;;;;4.27;100.00;94551.78;7399271;19;20457;-92
2023/10/29 07:14:11;;;;;;;13.90;9.20;;;;;;;3.05;100.00;94384.59;7397224;19;20381;-91
2023/10/29 07:16:44;;;;;;;7.00;6.30;;;;;;;3.25;100.00;94391.59;7396787;19;20388;-92
2023/10/29 07:19:16;;;;;;;10.20;7.30;;;;;;;4.44;100.00;94547.06;7395231;19;20407;-92
2023/10/29 07:21:43;;;;;;;9.37;6.40;;;;;;;4.21;100.00;94492.94;7396613;19;20374;-92
2023/10/29 07:24:11;;;;;;;5.40;4.90;;;;;;;5.42;100.00;94650.72;7397064;19;21005;-92
2023/10/29 07:26:39;;;;;;;3.07;2.80;;;;;;;4.83;100.00;94538.78;7396310;19;20921;-92
2023/10/29 07:29:06;;;;;;;2.30;2.20;;;;;;;4.20;100.00;94436.50;7395935;19;20416;-92
2023/10/29 07:31:33;;;;;;;7.27;3.63;;;;;;;5.39;100.00;94614.72;7396784;19;20362;-92
2023/10/29 07:34:00;;;;;;;3.60;3.03;;;;;;;5.96;100.00;94681.72;7396121;19;20378;-92
2023/10/29 07:36:28;;;;;;;6.60;4.10;;;;;;;3.92;100.00;94386.81;7396191;19;20385;-93
2023/10/29 07:38:56;;;;;;;4.87;4.47;;;;;;;5.85;100.00;94676.94;7393901;19;20452;-91
2023/10/29 07:41:24;;;;;;;5.47;4.60;;;;;;;4.72;100.00;94513.06;7397996;19;20722;-92
2023/10/29 07:43:51;;;;;;;4.00;3.60;;;;;;;4.79;100.00;94533.44;7398627;19;20453;-92
2023/10/29 07:46:20;;;;;;;3.67;3.37;;;;;;;5.09;100.00;94569.78;7397883;19;20390;-92
2023/10/29 07:48:47;;;;;;;5.97;4.33;;;;;;;5.78;100.00;94679.41;7397015;19;20428;-92
2023/10/29 07:52:08;;;;;;;;;;;;;;;;;;;;;
2023/10/29 08:05:58;;;;;;;8.60;3.30;;;;;;;5.13;100.00;94476.34;7395600;19;20897;-91
2023/10/29 08:08:25;;;;;;;3.60;2.70;;;;;;;4.76;100.00;94403.22;7395643;19;20387;-91
2023/10/29 08:10:52;;;;;;;3.60;2.33;;;;;;;6.57;100.00;94676.84;7396508;19;20370;-91
2023/10/29 08:13:20;;;;;;;31.03;20.90;;;;;;;5.74;100.00;94550.06;7396673;19;20961;-92
2023/10/29 08:15:47;;;;;;;58.57;37.90;;;;;;;5.96;100.00;94545.34;7394834;19;20447;-92
2023/10/29 08:18:14;;;;;;;58.20;38.07;;;;;;;5.60;100.00;94478.94;7395421;19;20402;-92
2023/10/29 08:20:42;;;;;;;20.30;14.10;;;;;;;6.49;100.00;94581.41;7394338;19;20517;-92
2023/10/29 08:23:10;;;;;;;7.17;5.03;;;;;;;6.18;100.00;94502.75;7394866;19;20378;-92
2023/10/29 08:25:38;;;;;;;4.67;3.07;;;;;;;6.65;100.00;94544.59;7395574;19;20714;-91
2023/10/29 08:28:09;;;;;;;7.33;6.63;;;;;;;7.50;100.00;94660.38;7395324;19;20963;-92
2023/10/29 08:30:37;;;;;;;4.33;3.40;;;;;;;6.55;100.00;94523.41;7393177;19;20486;-92
2023/10/29 08:33:04;;;;;;;2.33;1.60;;;;;;;8.19;100.00;94785.69;7394885;19;20452;-92
2023/10/29 08:35:31;;;;;;;2.27;2.07;;;;;;;6.56;100.00;94565.06;7395090;19;20395;-92
2023/10/29 08:37:58;;;;;;;2.17;1.87;;;;;;;7.79;100.00;94733.44;7393572;19;20392;-92
2023/10/29 08:40:25;;;;;;;2.00;1.90;;;;;;;7.50;100.00;94705.84;7392639;19;20399;-92
2023/10/29 08:42:52;;;;;;;3.07;2.47;;;;;;;7.56;100.00;94732.59;7394443;19;20377;-92
2023/10/29 08:45:22;;;;;;;2.17;1.70;;;;;;;7.52;100.00;94719.38;7394211;19;20917;-91
2023/10/29 08:48:08;;;;;;;1.43;1.33;;;;;;;6.49;100.00;94562.25;7394434;19;20411;-92
2023/10/29 08:50:35;;;;;;;3.67;1.70;;;;;;;6.52;100.00;94543.19;7392846;19;20410;-92
2023/10/29 08:53:02;;;;;;;4.07;1.87;;;;;;;7.11;100.00;94605.94;7393666;19;20406;-92
2023/10/29 08:55:30;;;;;;;2.60;2.07;;;;;;;8.06;100.00;94728.28;7393375;19;20388;-92
2023/10/29 08:57:57;;;;;;;4.23;2.63;;;;;;;6.93;100.00;94527.88;7393468;19;20408;-92
2023/10/29 09:00:24;;;;;;;14.57;5.43;;;;;;;8.90;100.00;94794.06;7392741;19;20404;-92
2023/10/29 09:03:04;;;;;;;5.30;3.03;;;;;;;9.39;100.00;94854.72;7394093;19;20401;-92
2023/10/29 09:05:31;;;;;;;5.53;3.07;;;;;;;8.64;100.00;94731.56;7395131;19;20381;-92
2023/10/29 09:07:58;;;;;;;4.17;2.67;;;;;;;8.49;100.00;94712.13;7393900;19;20396;-92
2023/10/29 09:10:26;;;;;;;3.33;1.80;;;;;;;7.87;100.00;94603.53;7392289;19;20498;-91
2023/10/29 09:12:53;;;;;;;5.37;2.20;;;;;;;8.16;100.00;94654.03;7393676;19;20377;-92
2023/10/29 09:15:20;;;;;;;12.03;4.40;;;;;;;7.91;100.00;94603.59;7393116;19;20457;-92
2023/10/29 09:17:50;;;;;;;3.47;2.33;;;;;;;7.94;100.00;94629.22;7393205;19;20384;-91
2023/10/29 09:20:19;;;;;;;5.57;2.70;;;;;;;9.10;100.00;94789.50;7392632;19;20466;-91
2023/10/29 09:22:46;;;;;;;9.87;3.87;;;;;;;9.12;100.00;94819.66;7393447;19;20386;-92
2023/10/29 09:25:14;;;;;;;7.27;3.60;;;;;;;8.45;100.00;94707.94;7393668;19;20382;-92
2023/10/29 09:27:42;;;;;;;6.10;3.37;;;;;;;8.67;100.00;94722.94;7393025;19;20976;-92
2023/10/29 09:30:09;;;;;;;8.37;4.73;;;;;;;8.35;100.00;94625.00;7391836;19;20425;-91
2023/10/29 09:32:37;;;;;;;4.50;3.30;;;;;;;8.21;100.00;94599.19;7392439;19;20384;-91
2023/10/29 09:35:04;;;;;;;4.60;2.07;;;;;;;9.31;100.00;94731.00;7392896;19;20449;-92
2023/10/29 09:37:34;;;;;;;5.93;2.10;;;;;;;9.24;100.00;94717.75;7392956;19;20406;-92
2023/10/29 09:40:02;;;;;;;4.30;2.90;;;;;;;9.56;100.00;94744.53;7391834;19;20947;-92
2023/10/29 09:42:34;;;;;;;3.77;2.10;;;;;;;8.61;100.00;94607.69;7393254;19;20914;-91
2023/10/29 09:45:04;;;;;;;4.60;3.00;;;;;;;8.44;100.00;94546.53;7394019;19;20361;-92
2023/10/29 09:47:31;;;;;;;3.63;2.57;;;;;;;8.98;100.00;94605.94;7398999;19;20411;-92
2023/10/29 09:49:58;;;;;;;4.60;2.60;;;;;;;8.37;100.00;94564.09;7408826;19;20437;-92
2023/10/29 09:52:32;;;;;;;2.77;1.80;;;;;;;9.67;100.00;94743.53;7408911;19;20382;-92
2023/10/29 09:55:00;;;;;;;3.00;1.80;;;;;;;8.27;100.00;94495.09;7408039;19;20789;-92
2023/10/29 09:57:29;;;;;;;4.40;1.87;;;;;;;9.28;100.00;94642.84;7410763;19;20398;-92
2023/10/29 09:59:59;;;;;;;4.57;2.57;;;;;;;8.93;100.00;94573.84;7399360;19;20983;-92
2023/10/29 10:02:26;;;;;;;2.30;1.93;;;;;;;9.63;100.00;94702.41;7393250;19;20381;-92
2023/10/29 10:04:54;;;;;;;1.30;1.20;;;;;;;9.57;100.00;94674.81;7407588;19;20400;-92
2023/10/29 10:07:21;;;;;;;3.13;2.07;;;;;;;10.59;100.00;94824.94;7404223;19;20387;-92
2023/10/29 14:06:48;;;;;;;1.67;1.57;;;;;;;11.65;100.00;94697.19;7403918;19;20387;-91
2023/10/29 14:10:28;;;;;;;2.53;1.87;;;;;;;11.36;100.00;94630.94;7396943;19;20424;-91
2023/10/29 14:13:49;;;;;;;2.67;1.83;;;;;;;11.58;100.00;94686.56;7399152;19;20395;-91
2023/10/29 14:47:34;;;;;;;2.83;2.23;;;;;;;9.38;100.00;94396.94;7395471;19;20406;-92
2023/10/29 14:51:15;;;;;;;3.23;1.80;;;;;;;9.07;100.00;94363.16;7394438;19;21020;-90
2023/10/29 14:53:46;;;;;;;3.60;3.30;;;;;;;9.75;100.00;94467.31;7395008;19;20397;-90
2023/10/29 14:56:31;;;;;;;2.67;2.47;;;;;;;8.77;100.00;94355.38;7430408;19;20452;-90
2023/10/29 14:59:03;;;;;;;7.90;3.00;;;;;;;9.83;100.00;94497.13;7434403;19;20421;-90
2023/10/29 15:01:36;;;;;;;3.87;2.30;;;;;;;9.16;100.00;94395.25;7448503;19;20385;-90
2023/10/29 15:04:07;;;;;;;9.20;2.03;;;;;;;8.83;100.00;94352.06;7445457;19;20379;-90
2023/10/29 15:06:38;;;;;;;5.23;2.17;;;;;;;8.70;100.00;94326.34;7441128;19;20399;-90
2023/10/29 15:09:10;;;;;;;4.57;2.73;;;;;;;8.79;100.00;94326.78;7436699;19;20952;-90
2023/10/29 15:11:40;;;;;;;2.70;2.50;;;;;;;8.89;100.00;94334.78;7434993;19;20976;-90
2023/10/29 15:14:08;;;;;;;3.77;3.03;;;;;;;9.53;100.00;94452.44;7435610;19;20900;-89
2023/10/29 15:16:41;;;;;;;4.10;3.23;;;;;;;8.52;100.00;94326.91;7433123;19;20375;-90
2023/10/29 15:19:08;;;;;;;3.73;2.40;;;;;;;9.18;100.00;94441.22;7434916;19;20405;-90
2023/10/29 15:21:44;;;;;;;6.50;3.87;;;;;;;9.47;100.00;94459.91;7433241;19;20397;-91
2023/10/29 15:24:13;;;;;;;6.07;4.43;;;;;;;9.83;100.00;94516.38;7436077;19;20397;-89
2023/10/29 15:26:44;;;;;;;4.87;3.30;;;;;;;8.58;100.00;94346.56;7433912;19;20367;-90
2023/10/29 15:29:12;;;;;;;5.80;3.80;;;;;;;8.69;100.00;94362.47;7432588;19;20413;-90
2023/10/29 15:31:42;;;;;;;4.97;4.57;;;;;;;9.54;100.00;94506.69;7431633;19;20390;-90
2023/10/29 15:34:12;;;;;;;4.57;3.60;;;;;;;8.53;100.00;94375.06;7433363;19;20395;-90
2023/10/29 15:36:46;;;;;;;4.27;2.40;;;;;;;9.84;100.00;94523.16;7431496;19;20404;-90
2023/10/29 15:39:20;;;;;;;3.30;2.10;;;;;;;9.32;100.00;94472.22;7428623;19;20416;-90
2023/10/29 15:41:50;;;;;;;4.73;4.30;;;;;;;9.22;100.00;94443.91;7431911;19;20738;-90
2023/10/29 15:44:27;;;;;;;10.10;9.20;;;;;;;8.20;100.00;94302.88;7430627;19;20477;-90
2023/10/29 15:47:01;;;;;;;6.50;5.80;;;;;;;10.26;100.00;94596.66;7432651;19;20382;-90
2023/10/29 15:49:37;;;;;;;3.83;3.40;;;;;;;10.49;100.00;94598.34;7429422;19;20409;-90
2023/10/29 15:52:12;;;;;;;7.80;4.83;;;;;;;8.16;100.00;94257.34;7433207;19;20402;-91
2023/10/29 15:54:48;;;;;;;8.23;5.93;;;;;;;7.99;100.00;94250.00;7431851;19;20410;-90
2023/10/29 15:57:23;;;;;;;11.63;10.33;;;;;;;9.37;100.00;94453.44;7429398;19;20376;-90
2023/10/29 15:59:56;;;;;;;11.77;8.80;;;;;;;7.95;100.00;94252.63;7442041;19;20441;-91
2023/10/29 16:02:26;;;;;;;9.10;7.20;;;;;;;9.13;100.00;94432.88;7440245;19;20394;-90
2023/10/29 16:04:54;;;;;;;5.43;3.63;;;;;;;7.85;100.00;94265.66;7432559;19;20387;-90
2023/10/29 16:07:29;;;;;;;18.43;15.83;;;;;;;7.83;100.00;94278.41;7406917;19;20898;-90
2023/10/29 16:09:59;;;;;;;7.80;7.00;;;;;;;8.73;100.00;94418.56;7402755;19;20973;-90
2023/10/29 16:12:29;;;;;;;4.07;3.07;;;;;;;8.88;100.00;94459.75;7402569;19;20471;-89
2023/10/29 16:14:57;;;;;;;3.57;3.27;;;;;;;7.49;100.00;94273.13;7401898;19;20403;-90
2023/10/29 16:17:28;;;;;;;4.57;1.93;;;;;;;8.02;100.00;94372.97;7403632;19;20458;-90
2023/10/29 16:19:56;;;;;;;3.80;3.20;;;;;;;8.42;100.00;94424.25;7398671;19;20419;-90
2023/10/29 16:22:23;;;;;;;4.10;3.53;;;;;;;7.64;100.00;94287.22;7402116;19;20378;-90
2023/10/29 16:24:51;;;;;;;7.07;6.37;;;;;;;9.04;100.00;94499.06;7401049;19;20367;-90
2023/10/29 16:27:18;;;;;;;8.47;6.50;;;;;;;8.65;100.00;94448.56;7403486;19;20991;-90
2023/10/29 16:29:48;;;;;;;10.80;9.90;;;;;;;8.56;100.00;94427.81;7401791;19;20442;-90
2023/10/29 16:32:18;;;;;;;8.23;7.53;;;;;;;7.24;100.00;94262.28;7405704;19;20379;-90
2023/10/29 16:34:45;;;;;;;10.33;9.23;;;;;;;7.13;100.00;94260.63;7402668;19;20391;-90
2023/10/29 16:37:13;;;;;;;8.93;8.23;;;;;;;7.14;100.00;94278.66;7404487;19;20922;-90
2023/10/29 16:39:46;;;;;;;8.93;8.00;;;;;;;7.67;100.00;94376.66;7402121;19;20415;-90
2023/10/29 16:42:19;;;;;;;5.70;5.00;;;;;;;7.81;100.00;94457.63;7405351;19;20749;-90
2023/10/29 16:44:46;;;;;;;5.80;5.30;;;;;;;6.84;100.00;94323.25;7403414;19;20363;-90
2023/10/29 16:47:16;;;;;;;5.37;4.87;;;;;;;6.67;100.00;94292.94;7405306;19;20383;-90
2023/10/29 16:49:49;;;;;;;5.27;4.77;;;;;;;6.67;100.00;94308.69;7402927;19;20414;-90
2023/10/29 16:52:26;;;;;;;8.00;5.10;;;;;;;7.98;100.00;94490.56;7404649;19;20453;-90
2023/10/29 16:54:59;;;;;;;10.67;6.10;;;;;;;7.63;100.00;94446.09;7408520;19;20384;-90
2023/10/29 16:57:27;;;;;;;5.93;5.00;;;;;;;8.74;100.00;94612.41;7414260;19;20389;-90